Time;durP1;ratioP1;P1;durP2;ratioP2;P2;SDS_P1;SDS_P2;PMS_P1;PMS_P2;Temp;Humidity;BMP_temperature;BMP_pressure;BME280_temperature;BME280_humidity;BME280_pressure;Samples;Min_cycle;Max_cycle;Signal;HPM_P1;HPM_P2
2021/12/23 00:00:44;;;;;;;19.33;12.43;;;;;;;;;;5019964;28;20228;-74
2021/12/23 00:03:09;;;;;;;20.10;12.27;;;;;;;;;;5037376;28;20305;-74
2021/12/23 00:05:40;;;;;;;14.13;10.63;;;;;;;;;;5071973;28;20222;-73
2021/12/23 00:08:06;;;;;;;19.00;11.10;;;;;;;;;;5052113;28;20225;-73
2021/12/23 00:10:34;;;;;;;19.17;11.27;;;;;;;;;;5063698;28;20301;-74
2021/12/23 00:12:59;;;;;;;17.77;10.67;;;;;;;;;;5083160;28;20228;-73
2021/12/23 00:15:32;;;;;;;19.03;12.30;;;;;;;;;;5051163;28;20642;-73
2021/12/23 00:18:18;;;;;;;18.13;10.47;;;;;;;;;;5068495;28;20226;-74
2021/12/23 00:25:46;;;;;;;18.87;11.27;;;;;;;;;;5074416;28;20219;-73
2021/12/23 00:28:12;;;;;;;14.60;10.70;;;;;;;;;;5073177;28;20206;-74
2021/12/23 00:30:37;;;;;;;19.47;11.60;;;;;;;;;;5056061;28;20299;-73
2021/12/23 00:33:05;;;;;;;17.73;10.70;;;;;;;;;;5021661;28;20734;-73
2021/12/23 00:35:35;;;;;;;17.63;10.80;;;;;;;;;;5055509;28;20246;-74
2021/12/23 00:38:06;;;;;;;18.50;11.73;;;;;;;;;;5064622;28;20227;-75
2021/12/23 00:40:32;;;;;;;16.73;11.47;;;;;;;;;;5056291;28;20245;-74
2021/12/23 00:42:59;;;;;;;18.50;11.93;;;;;;;;;;5070078;28;20305;-74
2021/12/23 00:45:27;;;;;;;17.23;10.57;;;;;;;;;;5039698;28;20227;-74
2021/12/23 00:47:55;;;;;;;16.00;10.97;;;;;;;;;;5072513;28;20238;-74
2021/12/23 00:50:23;;;;;;;18.67;11.13;;;;;;;;;;5063201;28;20211;-74
2021/12/23 00:52:57;;;;;;;17.77;10.93;;;;;;;;;;5033712;28;20253;-73
2021/12/23 00:55:22;;;;;;;18.17;10.97;;;;;;;;;;5073491;28;20316;-74
2021/12/23 00:57:48;;;;;;;18.17;11.90;;;;;;;;;;5039154;28;20661;-73
2021/12/23 01:00:15;;;;;;;16.60;11.07;;;;;;;;;;5038647;28;20226;-74
2021/12/23 01:02:46;;;;;;;15.77;11.30;;;;;;;;;;5055080;28;20217;-73
2021/12/23 01:05:15;;;;;;;15.33;10.10;;;;;;;;;;5071783;28;20310;-73
2021/12/23 01:07:41;;;;;;;16.53;11.07;;;;;;;;;;5037257;28;20218;-73
2021/12/23 01:10:07;;;;;;;18.40;11.40;;;;;;;;;;5054605;28;20245;-74
2021/12/23 01:12:40;;;;;;;16.63;10.97;;;;;;;;;;5054796;28;20858;-73
2021/12/23 01:15:17;;;;;;;17.40;11.10;;;;;;;;;;5071518;28;20226;-74
2021/12/23 01:17:55;;;;;;;14.93;10.83;;;;;;;;;;5072946;28;20246;-73
2021/12/23 01:20:26;;;;;;;15.63;10.53;;;;;;;;;;5050995;28;20238;-74
2021/12/23 01:22:54;;;;;;;16.90;11.10;;;;;;;;;;5019299;28;20280;-74
2021/12/23 01:25:24;;;;;;;16.03;10.57;;;;;;;;;;5054238;28;20253;-73
2021/12/23 01:27:53;;;;;;;15.73;11.63;;;;;;;;;;5054128;28;20218;-74
2021/12/23 01:30:21;;;;;;;15.17;9.90;;;;;;;;;;5054123;28;20239;-74
2021/12/23 01:32:47;;;;;;;16.63;10.50;;;;;;;;;;5054391;28;20727;-74
2021/12/23 01:35:13;;;;;;;15.40;10.33;;;;;;;;;;5054351;28;20298;-73
2021/12/23 01:37:43;;;;;;;16.43;11.60;;;;;;;;;;5060142;28;20317;-73
2021/12/23 01:40:10;;;;;;;14.73;11.07;;;;;;;;;;5056532;28;20223;-74
2021/12/23 01:42:38;;;;;;;16.80;11.17;;;;;;;;;;5038266;28;20222;-73
2021/12/23 01:45:14;;;;;;;16.50;11.30;;;;;;;;;;5070748;28;20305;-73
2021/12/23 01:47:40;;;;;;;18.73;10.47;;;;;;;;;;5022223;28;20230;-73
2021/12/23 01:50:06;;;;;;;16.87;10.70;;;;;;;;;;5054090;28;20222;-74
2021/12/23 01:52:34;;;;;;;18.53;12.13;;;;;;;;;;5054005;28;20218;-74
2021/12/23 01:55:02;;;;;;;17.50;11.63;;;;;;;;;;5054520;28;20726;-73
2021/12/23 01:57:34;;;;;;;15.47;11.03;;;;;;;;;;5033527;28;20215;-74
2021/12/23 02:00:00;;;;;;;14.23;10.57;;;;;;;;;;5045958;28;20708;-74
2021/12/23 02:02:30;;;;;;;15.17;10.93;;;;;;;;;;5053494;28;20214;-74
2021/12/23 02:04:56;;;;;;;17.57;11.43;;;;;;;;;;5070940;28;20302;-74
2021/12/23 02:07:22;;;;;;;17.03;11.23;;;;;;;;;;5049188;28;20588;-73
2021/12/23 02:09:52;;;;;;;15.80;10.80;;;;;;;;;;5075353;28;20687;-74
2021/12/23 02:12:20;;;;;;;15.27;11.20;;;;;;;;;;5053609;28;20261;-74
2021/12/23 02:14:45;;;;;;;15.97;11.63;;;;;;;;;;5021309;28;20302;-74
2021/12/23 02:17:11;;;;;;;17.37;11.23;;;;;;;;;;5071253;28;20723;-74
2021/12/23 02:19:39;;;;;;;15.97;11.30;;;;;;;;;;5052691;28;20226;-74
2021/12/23 02:22:09;;;;;;;15.60;10.80;;;;;;;;;;5036485;28;20244;-75
2021/12/23 02:24:37;;;;;;;16.57;10.07;;;;;;;;;;5054343;28;20695;-74
2021/12/23 02:27:03;;;;;;;17.13;10.53;;;;;;;;;;5069829;28;21005;-74
2021/12/23 02:29:30;;;;;;;16.17;11.10;;;;;;;;;;5071571;28;20232;-73
2021/12/23 02:31:58;;;;;;;15.10;10.50;;;;;;;;;;5053781;28;20227;-74
2021/12/23 02:34:24;;;;;;;16.77;11.70;;;;;;;;;;5053489;28;20218;-74
2021/12/23 02:36:54;;;;;;;15.80;11.00;;;;;;;;;;5063602;28;20231;-74
2021/12/23 02:39:22;;;;;;;15.53;11.10;;;;;;;;;;5063182;28;21288;-73
2021/12/23 02:41:51;;;;;;;15.20;11.20;;;;;;;;;;5052818;28;20309;-74
2021/12/23 02:44:19;;;;;;;16.43;11.13;;;;;;;;;;5069720;28;20231;-74
2021/12/23 02:46:47;;;;;;;14.73;10.57;;;;;;;;;;5053254;28;20344;-74
2021/12/23 02:49:16;;;;;;;17.93;11.37;;;;;;;;;;5053395;28;20234;-73
2021/12/23 02:51:41;;;;;;;18.37;11.57;;;;;;;;;;5052403;28;20612;-74
2021/12/23 02:54:12;;;;;;;17.17;11.27;;;;;;;;;;5069701;28;20218;-74
2021/12/23 02:56:40;;;;;;;18.43;11.93;;;;;;;;;;5037547;28;20231;-74
2021/12/23 02:59:08;;;;;;;14.37;10.17;;;;;;;;;;5069307;28;20231;-73
2021/12/23 03:01:39;;;;;;;16.13;11.00;;;;;;;;;;5069252;28;20222;-74
2021/12/23 03:04:05;;;;;;;16.70;11.33;;;;;;;;;;5052955;28;20215;-74
2021/12/23 03:06:31;;;;;;;13.97;11.10;;;;;;;;;;5049001;28;20276;-74
2021/12/23 03:08:59;;;;;;;16.83;12.30;;;;;;;;;;5074431;28;20246;-74
2021/12/23 03:11:28;;;;;;;15.17;10.90;;;;;;;;;;5038075;28;20214;-74
2021/12/23 03:13:54;;;;;;;19.47;12.60;;;;;;;;;;5037460;28;20235;-74
2021/12/23 03:16:29;;;;;;;16.17;11.23;;;;;;;;;;5053209;28;20226;-73
2021/12/23 03:18:57;;;;;;;17.27;11.87;;;;;;;;;;5069557;28;20234;-74
2021/12/23 03:21:22;;;;;;;15.07;11.10;;;;;;;;;;5069379;28;20684;-74
2021/12/23 03:23:48;;;;;;;16.37;10.83;;;;;;;;;;5036050;28;20249;-74
2021/12/23 03:26:16;;;;;;;16.00;10.77;;;;;;;;;;5070160;28;20622;-74
2021/12/23 03:28:44;;;;;;;14.77;10.77;;;;;;;;;;5052624;28;20233;-74
2021/12/23 03:31:11;;;;;;;17.40;11.30;;;;;;;;;;5068809;28;20222;-74
2021/12/23 03:33:37;;;;;;;15.27;11.17;;;;;;;;;;5069487;28;20222;-74
2021/12/23 03:36:05;;;;;;;15.10;10.93;;;;;;;;;;5052456;28;20232;-74
2021/12/23 03:38:37;;;;;;;15.03;10.80;;;;;;;;;;5071832;28;20254;-73
2021/12/23 03:41:06;;;;;;;16.83;11.17;;;;;;;;;;5042754;28;20356;-74
2021/12/23 03:43:33;;;;;;;16.43;12.17;;;;;;;;;;5048894;28;20220;-74
2021/12/23 03:46:03;;;;;;;16.57;11.73;;;;;;;;;;5038297;28;20730;-73
2021/12/23 03:48:29;;;;;;;13.63;10.47;;;;;;;;;;5052227;28;20250;-73
2021/12/23 03:50:54;;;;;;;17.03;11.43;;;;;;;;;;5052777;28;20304;-74
2021/12/23 03:53:22;;;;;;;17.10;11.73;;;;;;;;;;5051991;28;20227;-73
2021/12/23 03:55:50;;;;;;;15.83;12.03;;;;;;;;;;5069362;28;20219;-73
2021/12/23 03:58:21;;;;;;;17.10;12.73;;;;;;;;;;5068489;28;20265;-73
2021/12/23 04:00:49;;;;;;;17.47;11.93;;;;;;;;;;5037098;28;20222;-74
2021/12/23 04:03:17;;;;;;;16.57;11.60;;;;;;;;;;5035780;28;20711;-74
2021/12/23 04:05:42;;;;;;;15.93;11.63;;;;;;;;;;5052412;28;20227;-74
2021/12/23 04:08:10;;;;;;;18.10;12.20;;;;;;;;;;5072008;28;20221;-73
2021/12/23 04:10:43;;;;;;;17.93;11.43;;;;;;;;;;5084420;28;20233;-73
2021/12/23 04:13:08;;;;;;;16.93;11.67;;;;;;;;;;5016264;28;20261;-73
2021/12/23 04:15:37;;;;;;;16.33;12.07;;;;;;;;;;5049208;28;20250;-74
2021/12/23 04:18:05;;;;;;;19.93;11.80;;;;;;;;;;5050169;28;20218;-74
2021/12/23 04:20:46;;;;;;;18.60;12.47;;;;;;;;;;5055222;28;20238;-73
2021/12/23 04:23:12;;;;;;;18.47;12.07;;;;;;;;;;5059680;28;20250;-73
2021/12/23 04:25:42;;;;;;;19.20;12.87;;;;;;;;;;5036596;28;20704;-73
2021/12/23 04:28:08;;;;;;;16.47;11.57;;;;;;;;;;5052376;28;20240;-74
2021/12/23 04:30:36;;;;;;;18.67;13.03;;;;;;;;;;5052790;28;20257;-73
2021/12/23 04:33:04;;;;;;;16.80;11.77;;;;;;;;;;5068382;28;20214;-73
2021/12/23 04:35:34;;;;;;;17.17;12.20;;;;;;;;;;5051512;28;20301;-75
2021/12/23 04:38:02;;;;;;;16.13;11.97;;;;;;;;;;5036353;28;20235;-74
2021/12/23 04:40:34;;;;;;;16.73;11.90;;;;;;;;;;5059580;28;20276;-74
2021/12/23 04:43:05;;;;;;;18.90;12.90;;;;;;;;;;5054582;28;20223;-74
2021/12/23 04:45:30;;;;;;;14.77;10.73;;;;;;;;;;5038673;28;20724;-75
2021/12/23 04:47:58;;;;;;;16.63;12.57;;;;;;;;;;5038843;28;20276;-75
2021/12/23 04:50:28;;;;;;;17.87;12.00;;;;;;;;;;5039491;28;20215;-74
2021/12/23 04:52:56;;;;;;;14.43;11.40;;;;;;;;;;5071379;28;20233;-75
2021/12/23 04:55:24;;;;;;;17.07;12.00;;;;;;;;;;5055546;28;20234;-75
2021/12/23 04:57:50;;;;;;;18.87;12.20;;;;;;;;;;5072148;28;20214;-74
2021/12/23 05:00:22;;;;;;;15.80;11.43;;;;;;;;;;5055155;28;20265;-74
2021/12/23 05:02:48;;;;;;;16.80;11.57;;;;;;;;;;5026190;28;20220;-75
2021/12/23 05:05:16;;;;;;;15.57;12.13;;;;;;;;;;5068267;28;20255;-75
2021/12/23 05:07:48;;;;;;;17.57;12.27;;;;;;;;;;5044676;28;20234;-75
2021/12/23 05:10:14;;;;;;;17.90;12.23;;;;;;;;;;5063571;28;20230;-75
2021/12/23 05:12:44;;;;;;;15.57;11.90;;;;;;;;;;5054733;28;20319;-74
2021/12/23 05:15:15;;;;;;;19.27;12.57;;;;;;;;;;5055798;28;20310;-75
2021/12/23 05:17:43;;;;;;;18.20;12.50;;;;;;;;;;5055519;28;20921;-74
2021/12/23 05:20:09;;;;;;;17.70;12.53;;;;;;;;;;5038150;28;20309;-75
2021/12/23 05:22:38;;;;;;;18.10;12.83;;;;;;;;;;5054124;28;20219;-75
2021/12/23 05:25:09;;;;;;;18.13;12.87;;;;;;;;;;5037750;28;20272;-75
2021/12/23 05:27:34;;;;;;;18.37;13.00;;;;;;;;;;5055458;28;20302;-75
2021/12/23 05:30:06;;;;;;;17.37;11.73;;;;;;;;;;5038681;28;20227;-75
2021/12/23 05:32:34;;;;;;;18.90;13.17;;;;;;;;;;5072193;28;20218;-74
2021/12/23 05:34:59;;;;;;;17.63;12.60;;;;;;;;;;5038216;28;20230;-75
2021/12/23 05:37:27;;;;;;;16.53;12.17;;;;;;;;;;5038898;28;20232;-74
2021/12/23 05:39:53;;;;;;;17.87;12.63;;;;;;;;;;5079315;28;20223;-72
2021/12/23 05:42:19;;;;;;;18.17;12.47;;;;;;;;;;5053493;28;20601;-73
2021/12/23 05:44:47;;;;;;;18.70;13.03;;;;;;;;;;5054362;28;20298;-73
2021/12/23 05:47:15;;;;;;;18.23;13.07;;;;;;;;;;5054617;28;20225;-73
2021/12/23 05:49:41;;;;;;;16.70;12.03;;;;;;;;;;5071221;28;20301;-73
2021/12/23 05:52:06;;;;;;;18.90;12.97;;;;;;;;;;5070406;28;20715;-73
2021/12/23 05:54:32;;;;;;;18.43;12.63;;;;;;;;;;5037569;28;20219;-73
2021/12/23 05:57:02;;;;;;;19.57;12.97;;;;;;;;;;5071189;28;20310;-73
2021/12/23 05:59:31;;;;;;;16.67;12.90;;;;;;;;;;5070564;28;20229;-74
2021/12/23 06:01:57;;;;;;;19.20;12.63;;;;;;;;;;5070937;28;20215;-73
2021/12/23 06:04:25;;;;;;;20.60;13.03;;;;;;;;;;5054471;28;20215;-74
2021/12/23 06:06:53;;;;;;;17.73;12.80;;;;;;;;;;5037893;28;20238;-73
2021/12/23 06:09:18;;;;;;;19.97;13.20;;;;;;;;;;5085002;28;20223;-74
2021/12/23 06:11:46;;;;;;;20.00;13.53;;;;;;;;;;5065613;28;20648;-73
2021/12/23 06:14:12;;;;;;;22.10;13.50;;;;;;;;;;5062866;28;20222;-74
2021/12/23 06:16:37;;;;;;;20.27;13.73;;;;;;;;;;5054993;28;20226;-74
2021/12/23 06:19:03;;;;;;;15.80;12.07;;;;;;;;;;5040177;28;20301;-73
2021/12/23 06:21:30;;;;;;;16.07;12.33;;;;;;;;;;5056138;28;20297;-74
2021/12/23 06:23:59;;;;;;;16.17;11.93;;;;;;;;;;5071721;28;20887;-74
2021/12/23 06:26:29;;;;;;;19.37;13.47;;;;;;;;;;5054719;28;20253;-74
2021/12/23 06:29:00;;;;;;;16.00;11.90;;;;;;;;;;5054050;28;20218;-73
2021/12/23 06:31:28;;;;;;;18.60;12.77;;;;;;;;;;5037687;28;20218;-74
2021/12/23 06:33:56;;;;;;;17.63;12.60;;;;;;;;;;5054550;28;20280;-74
2021/12/23 06:36:24;;;;;;;21.53;13.30;;;;;;;;;;5050895;28;20226;-73
2021/12/23 06:38:52;;;;;;;17.17;12.73;;;;;;;;;;5073699;28;20230;-74
2021/12/23 06:41:20;;;;;;;17.13;12.93;;;;;;;;;;5036679;28;20692;-74
2021/12/23 06:43:46;;;;;;;17.77;13.07;;;;;;;;;;5052969;28;20305;-75
2021/12/23 06:46:11;;;;;;;17.67;13.30;;;;;;;;;;5069749;28;20222;-74
2021/12/23 06:48:41;;;;;;;19.00;13.17;;;;;;;;;;5053748;28;20215;-73
2021/12/23 06:51:10;;;;;;;19.80;12.83;;;;;;;;;;5069544;28;20218;-74
2021/12/23 06:53:36;;;;;;;18.20;12.67;;;;;;;;;;5037066;28;20599;-73
2021/12/23 06:56:02;;;;;;;17.13;12.57;;;;;;;;;;5053418;28;20230;-73
2021/12/23 06:58:28;;;;;;;22.00;13.40;;;;;;;;;;5036183;28;20296;-74
2021/12/23 07:00:55;;;;;;;17.37;13.43;;;;;;;;;;5069706;28;20309;-73
2021/12/23 07:03:23;;;;;;;17.10;12.47;;;;;;;;;;5036352;28;20215;-74
2021/12/23 07:05:57;;;;;;;17.10;12.93;;;;;;;;;;5036243;28;20259;-74
2021/12/23 07:08:27;;;;;;;15.67;12.43;;;;;;;;;;5071344;28;20210;-74
2021/12/23 07:10:53;;;;;;;18.40;13.50;;;;;;;;;;5052970;28;20305;-74
2021/12/23 07:13:19;;;;;;;18.93;12.73;;;;;;;;;;5051580;28;20227;-74
2021/12/23 07:15:44;;;;;;;18.23;12.77;;;;;;;;;;5036138;28;20234;-74
2021/12/23 07:18:17;;;;;;;18.30;13.10;;;;;;;;;;5070396;28;20305;-73
2021/12/23 07:20:43;;;;;;;17.53;13.00;;;;;;;;;;5052870;28;20962;-73
2021/12/23 07:23:11;;;;;;;17.77;13.07;;;;;;;;;;5069036;28;20222;-74
2021/12/23 07:25:37;;;;;;;19.50;13.83;;;;;;;;;;5070814;28;20214;-74
2021/12/23 07:28:04;;;;;;;19.77;14.73;;;;;;;;;;5052473;28;20896;-74
2021/12/23 07:30:32;;;;;;;18.70;13.23;;;;;;;;;;5036426;28;20708;-73
2021/12/23 07:33:04;;;;;;;20.50;14.67;;;;;;;;;;5052552;28;20244;-74
2021/12/23 07:35:32;;;;;;;20.27;14.63;;;;;;;;;;5052712;28;20252;-74
2021/12/23 07:38:00;;;;;;;17.40;12.67;;;;;;;;;;5061460;28;20225;-74
2021/12/23 07:40:29;;;;;;;20.37;13.27;;;;;;;;;;5073023;28;20267;-74
2021/12/23 07:43:08;;;;;;;17.47;13.43;;;;;;;;;;5074210;28;20230;-73
2021/12/23 07:45:36;;;;;;;17.27;13.37;;;;;;;;;;5065676;28;20697;-74
2021/12/23 07:48:02;;;;;;;17.40;12.27;;;;;;;;;;5054715;28;20271;-74
2021/12/23 07:50:30;;;;;;;18.60;13.50;;;;;;;;;;5069805;28;20302;-74
2021/12/23 07:52:58;;;;;;;18.27;13.50;;;;;;;;;;5052886;28;20249;-74
2021/12/23 07:55:26;;;;;;;17.80;13.70;;;;;;;;;;5049269;28;20777;-74
2021/12/23 07:57:57;;;;;;;19.23;13.40;;;;;;;;;;5049975;28;20219;-75
2021/12/23 08:00:29;;;;;;;26.50;17.47;;;;;;;;;;5024443;28;20226;-75
2021/12/23 08:02:59;;;;;;;26.60;17.17;;;;;;;;;;5053835;28;20604;-75
2021/12/23 08:05:30;;;;;;;20.43;14.33;;;;;;;;;;5052078;28;20218;-75
2021/12/23 08:07:58;;;;;;;19.73;14.23;;;;;;;;;;5051266;28;20218;-75
2021/12/23 08:10:26;;;;;;;22.67;16.67;;;;;;;;;;5049463;28;20221;-74
2021/12/23 08:12:57;;;;;;;21.00;14.50;;;;;;;;;;5071697;28;20214;-74
2021/12/23 08:15:29;;;;;;;20.50;14.73;;;;;;;;;;5074377;28;20309;-74
2021/12/23 08:17:57;;;;;;;21.17;14.03;;;;;;;;;;5051388;28;20219;-75
2021/12/23 08:20:25;;;;;;;21.87;14.80;;;;;;;;;;5070833;28;20274;-74
2021/12/23 08:22:53;;;;;;;22.43;15.00;;;;;;;;;;5062525;28;20247;-75
2021/12/23 08:25:24;;;;;;;23.70;16.50;;;;;;;;;;5051400;28;20305;-73
2021/12/23 08:27:52;;;;;;;22.27;16.40;;;;;;;;;;5055019;28;20223;-74
2021/12/23 08:30:20;;;;;;;24.77;17.40;;;;;;;;;;5058096;28;20707;-74
2021/12/23 08:32:48;;;;;;;22.33;15.83;;;;;;;;;;5065809;28;20218;-73
2021/12/23 08:35:14;;;;;;;19.53;13.80;;;;;;;;;;5058321;28;20254;-73
2021/12/23 08:37:40;;;;;;;18.67;14.00;;;;;;;;;;5062951;28;20222;-73
2021/12/23 08:40:09;;;;;;;22.93;16.00;;;;;;;;;;5050418;28;20322;-72
2021/12/23 08:42:35;;;;;;;20.97;14.63;;;;;;;;;;5052882;28;20223;-72
2021/12/23 08:45:04;;;;;;;18.43;14.30;;;;;;;;;;5037067;28;20226;-73
2021/12/23 08:47:30;;;;;;;20.23;13.97;;;;;;;;;;5040007;28;20293;-73
2021/12/23 08:49:56;;;;;;;18.23;13.30;;;;;;;;;;5041119;28;20223;-73
2021/12/23 08:52:22;;;;;;;17.20;12.90;;;;;;;;;;5047361;28;20299;-72
2021/12/23 08:54:49;;;;;;;19.17;13.40;;;;;;;;;;5089649;28;20237;-73
2021/12/23 08:57:15;;;;;;;17.33;13.50;;;;;;;;;;5074909;28;20314;-73
2021/12/23 08:59:41;;;;;;;18.60;13.10;;;;;;;;;;5039066;28;20305;-73
2021/12/23 09:02:09;;;;;;;19.30;13.47;;;;;;;;;;5053697;28;20558;-72
2021/12/23 09:04:34;;;;;;;18.90;14.60;;;;;;;;;;5049094;28;20210;-72
2021/12/23 09:07:01;;;;;;;17.63;13.60;;;;;;;;;;5064706;28;20222;-72
2021/12/23 09:09:32;;;;;;;16.37;12.90;;;;;;;;;;5045729;28;20206;-73
2021/12/23 09:12:03;;;;;;;18.73;13.23;;;;;;;;;;5055392;28;20623;-72
2021/12/23 09:14:29;;;;;;;19.20;14.63;;;;;;;;;;5066704;28;20257;-73
2021/12/23 09:16:54;;;;;;;18.47;13.53;;;;;;;;;;5057705;28;20249;-73
2021/12/23 09:19:20;;;;;;;20.23;14.47;;;;;;;;;;5071462;28;20789;-73
2021/12/23 09:21:46;;;;;;;18.77;14.00;;;;;;;;;;5053859;28;20223;-72
2021/12/23 09:24:11;;;;;;;21.17;14.83;;;;;;;;;;5055267;28;20219;-72
2021/12/23 09:26:48;;;;;;;19.43;14.90;;;;;;;;;;5054568;28;20306;-73
2021/12/23 09:32:38;;;;;;;19.93;14.57;;;;;;;;;;5055893;28;20238;-73
2021/12/23 09:34:43;;;;;;;17.93;13.73;;;;;;;;;;5071685;28;20215;-74
2021/12/23 09:37:08;;;;;;;16.37;12.87;;;;;;;;;;5031703;28;20246;-73
2021/12/23 09:39:36;;;;;;;17.17;13.80;;;;;;;;;;5071597;28;20791;-73
2021/12/23 09:42:03;;;;;;;20.90;14.00;;;;;;;;;;5072561;28;20218;-73
2021/12/23 09:44:28;;;;;;;19.17;13.70;;;;;;;;;;5054915;28;20710;-72
2021/12/23 09:46:55;;;;;;;15.77;13.07;;;;;;;;;;5054013;28;20231;-72
2021/12/23 09:49:23;;;;;;;19.20;13.27;;;;;;;;;;5031336;28;20596;-72
2021/12/23 09:51:48;;;;;;;19.20;13.90;;;;;;;;;;5070586;28;20341;-72
2021/12/23 09:54:16;;;;;;;17.43;13.30;;;;;;;;;;5066761;28;20219;-72
2021/12/23 09:56:41;;;;;;;17.30;13.37;;;;;;;;;;5046762;28;20301;-72
2021/12/23 09:59:09;;;;;;;16.97;13.83;;;;;;;;;;5046648;28;20746;-72
2021/12/23 10:01:40;;;;;;;19.50;14.00;;;;;;;;;;5049266;28;20303;-75
2021/12/23 10:04:06;;;;;;;18.20;13.77;;;;;;;;;;5019445;28;20211;-72
2021/12/23 10:06:32;;;;;;;19.07;13.73;;;;;;;;;;5052856;28;20229;-73
2021/12/23 10:08:58;;;;;;;19.37;13.67;;;;;;;;;;5040554;28;20219;-72
2021/12/23 10:11:39;;;;;;;20.10;14.47;;;;;;;;;;5046487;28;20308;-72
2021/12/23 10:31:07;;;;;;;15.90;12.87;;;;;;;;;;5071665;28;20309;-73
2021/12/23 10:33:49;;;;;;;19.10;13.90;;;;;;;;;;5068577;28;20262;-74
2021/12/23 10:38:40;;;;;;;17.10;12.80;;;;;;;;;;5067857;28;20227;-72
2021/12/23 10:41:12;;;;;;;18.43;14.07;;;;;;;;;;5053489;28;20249;-72
2021/12/23 10:43:45;;;;;;;18.40;13.50;;;;;;;;;;5054045;28;20692;-73
2021/12/23 10:46:17;;;;;;;18.97;13.30;;;;;;;;;;5070188;28;20222;-74
2021/12/23 10:48:52;;;;;;;18.43;13.60;;;;;;;;;;5051730;28;20621;-74
2021/12/23 10:51:19;;;;;;;17.73;13.50;;;;;;;;;;5065956;28;20708;-73
2021/12/23 10:58:00;;;;;;;18.73;14.10;;;;;;;;;;5069794;28;20222;-74
2021/12/23 10:59:21;;;;;;;16.53;12.67;;;;;;;;;;5058449;28;20233;-71
2021/12/23 11:02:12;;;;;;;19.93;14.00;;;;;;;;;;5035422;28;20257;-75
2021/12/23 11:05:02;;;;;;;18.83;13.63;;;;;;;;;;5055892;28;20222;-72
2021/12/23 11:08:01;;;;;;;17.00;13.53;;;;;;;;;;5067654;28;20217;-73
2021/12/23 11:38:40;;;;;;;18.97;13.83;;;;;;;;;;5056437;28;20677;-72
2021/12/23 11:43:51;;;;;;;18.90;13.87;;;;;;;;;;5059402;28;20222;-72
2021/12/23 11:46:32;;;;;;;15.73;12.57;;;;;;;;;;5062141;28;20708;-72
2021/12/23 11:49:00;;;;;;;18.87;13.90;;;;;;;;;;5049852;28;20215;-72
2021/12/23 11:53:55;;;;;;;19.43;13.33;;;;;;;;;;5043163;28;20210;-72
2021/12/23 11:56:21;;;;;;;16.50;13.80;;;;;;;;;;5051739;28;20215;-75
2021/12/23 11:58:55;;;;;;;17.70;13.87;;;;;;;;;;5056445;28;20774;-73
2021/12/23 12:01:22;;;;;;;17.13;12.80;;;;;;;;;;5073269;28;20602;-72
2021/12/23 12:04:03;;;;;;;17.90;13.67;;;;;;;;;;5039698;28;20726;-72
2021/12/23 12:06:47;;;;;;;19.97;13.50;;;;;;;;;;5017024;28;20223;-73
2021/12/23 12:09:22;;;;;;;17.53;13.53;;;;;;;;;;5070270;28;20210;-73
2021/12/23 12:12:02;;;;;;;18.43;14.00;;;;;;;;;;5067484;28;20218;-73
2021/12/23 12:14:36;;;;;;;17.43;13.27;;;;;;;;;;5064559;28;20231;-73
2021/12/23 12:17:23;;;;;;;19.80;14.37;;;;;;;;;;5064152;28;20703;-73
2021/12/23 12:20:00;;;;;;;17.13;13.80;;;;;;;;;;5075052;28;20310;-74
2021/12/23 12:22:47;;;;;;;16.87;13.47;;;;;;;;;;5039895;28;20222;-74
2021/12/23 12:25:24;;;;;;;18.90;13.83;;;;;;;;;;5071846;28;20363;-73
2021/12/23 12:27:56;;;;;;;19.33;13.97;;;;;;;;;;5069572;28;20257;-74
2021/12/23 12:31:13;;;;;;;18.67;13.80;;;;;;;;;;5071457;28;20226;-74
2021/12/23 12:33:41;;;;;;;19.13;14.17;;;;;;;;;;5028852;28;20295;-73
2021/12/23 12:36:12;;;;;;;18.90;14.17;;;;;;;;;;5054362;28;20216;-74
2021/12/23 12:39:03;;;;;;;17.57;13.63;;;;;;;;;;5021627;28;20226;-73
2021/12/23 12:41:30;;;;;;;17.40;14.77;;;;;;;;;;5065234;28;20242;-75
2021/12/23 12:44:16;;;;;;;19.80;14.67;;;;;;;;;;5038365;28;20227;-75
2021/12/23 12:49:27;;;;;;;33.13;20.37;;;;;;;;;;5071040;28;20226;-73
2021/12/23 12:52:08;;;;;;;26.83;17.27;;;;;;;;;;5055379;28;20215;-73
2021/12/23 12:54:40;;;;;;;25.93;18.53;;;;;;;;;;5056593;28;20595;-73
2021/12/23 12:57:09;;;;;;;25.63;17.57;;;;;;;;;;5038376;28;20292;-73
2021/12/23 12:59:42;;;;;;;18.60;14.83;;;;;;;;;;5054107;28;20317;-73
2021/12/23 13:02:34;;;;;;;20.50;15.40;;;;;;;;;;5055659;28;20739;-72
2021/12/23 13:05:04;;;;;;;19.77;15.67;;;;;;;;;;5072665;28;20249;-72
2021/12/23 13:07:53;;;;;;;22.53;14.37;;;;;;;;;;5055248;28;20595;-72
2021/12/23 13:10:34;;;;;;;20.63;15.53;;;;;;;;;;5042395;28;20305;-72
2021/12/23 13:13:11;;;;;;;18.97;15.17;;;;;;;;;;5053837;28;20773;-72
2021/12/23 13:16:14;;;;;;;18.80;14.37;;;;;;;;;;5073261;28;20222;-73
2021/12/23 13:18:40;;;;;;;20.00;15.80;;;;;;;;;;5072796;28;20226;-73
2021/12/23 13:21:06;;;;;;;18.83;14.70;;;;;;;;;;5069261;28;20244;-72
2021/12/23 13:23:38;;;;;;;21.97;15.23;;;;;;;;;;5062519;28;20222;-72
2021/12/23 13:26:10;;;;;;;21.33;15.07;;;;;;;;;;5064874;28;20238;-73
2021/12/23 13:28:45;;;;;;;22.03;15.93;;;;;;;;;;5081330;28;20218;-73
2021/12/23 13:31:30;;;;;;;23.63;16.60;;;;;;;;;;5055695;28;20709;-73
2021/12/23 13:33:57;;;;;;;22.67;16.17;;;;;;;;;;5038737;28;20228;-72
2021/12/23 13:36:24;;;;;;;19.53;14.80;;;;;;;;;;5035529;28;20250;-72
2021/12/23 13:38:55;;;;;;;20.67;14.37;;;;;;;;;;5050500;28;20245;-73
2021/12/23 13:41:56;;;;;;;19.73;15.23;;;;;;;;;;5055395;28;20591;-71
2021/12/23 13:44:40;;;;;;;21.87;15.90;;;;;;;;;;5019003;28;20297;-72
2021/12/23 13:47:11;;;;;;;21.67;15.30;;;;;;;;;;5056226;28;20234;-71
2021/12/23 13:49:46;;;;;;;21.43;15.43;;;;;;;;;;5055235;28;20226;-71
2021/12/23 13:52:18;;;;;;;20.77;15.70;;;;;;;;;;5054753;28;20229;-74
2021/12/23 13:54:46;;;;;;;22.60;15.97;;;;;;;;;;5038440;28;20223;-71
2021/12/23 13:57:19;;;;;;;21.30;16.43;;;;;;;;;;5037818;28;20714;-72
2021/12/23 13:59:46;;;;;;;25.53;17.17;;;;;;;;;;5046505;28;20257;-72
2021/12/23 14:02:25;;;;;;;23.53;17.47;;;;;;;;;;5053566;28;20227;-71
2021/12/23 14:05:02;;;;;;;21.33;16.70;;;;;;;;;;5034758;28;20261;-73
2021/12/23 14:07:42;;;;;;;24.27;17.63;;;;;;;;;;5049798;28;20210;-76
2021/12/23 14:10:10;;;;;;;24.87;18.37;;;;;;;;;;5067549;28;20242;-76
2021/12/23 14:12:43;;;;;;;23.97;17.87;;;;;;;;;;5067264;28;20776;-74
2021/12/23 14:15:14;;;;;;;25.97;17.77;;;;;;;;;;5070700;28;20222;-75
2021/12/23 14:18:07;;;;;;;25.20;19.03;;;;;;;;;;5042214;28;20606;-73
2021/12/23 14:23:39;;;;;;;28.53;19.10;;;;;;;;;;5061523;28;20649;-72
2021/12/23 14:26:09;;;;;;;23.63;17.20;;;;;;;;;;5069496;28;20234;-73
2021/12/23 14:28:47;;;;;;;25.30;18.10;;;;;;;;;;5052242;28;20692;-72
2021/12/23 14:31:27;;;;;;;23.70;17.37;;;;;;;;;;5072722;28;20293;-72
2021/12/23 14:33:53;;;;;;;22.83;17.90;;;;;;;;;;5049429;28;20687;-71
2021/12/23 14:36:28;;;;;;;26.33;18.33;;;;;;;;;;5049822;28;20353;-72
2021/12/23 14:39:12;;;;;;;27.40;19.53;;;;;;;;;;5070869;28;20229;-71
2021/12/23 14:41:51;;;;;;;24.73;18.27;;;;;;;;;;5042481;28;20215;-74
2021/12/23 14:44:23;;;;;;;24.97;16.90;;;;;;;;;;5068119;28;20234;-74
2021/12/23 14:47:12;;;;;;;28.33;20.63;;;;;;;;;;5053466;28;20229;-71
2021/12/23 14:52:36;;;;;;;29.77;19.57;;;;;;;;;;5050873;28;20215;-74
2021/12/23 14:55:09;;;;;;;26.23;18.77;;;;;;;;;;5054564;28;20223;-73
2021/12/23 14:57:37;;;;;;;33.80;24.53;;;;;;;;;;5079317;28;20246;-75
2021/12/23 15:00:28;;;;;;;28.43;20.63;;;;;;;;;;5049404;28;20658;-73
2021/12/23 15:03:00;;;;;;;27.67;21.00;;;;;;;;;;5063853;28;20224;-73
2021/12/23 15:05:28;;;;;;;31.53;21.57;;;;;;;;;;5031417;28;20302;-74
2021/12/23 15:08:01;;;;;;;28.10;19.57;;;;;;;;;;5058748;28;20222;-71
2021/12/23 15:10:41;;;;;;;28.53;20.00;;;;;;;;;;5073308;28;20210;-73
2021/12/23 15:13:38;;;;;;;30.00;19.60;;;;;;;;;;5068025;28;20594;-72
2021/12/23 15:16:16;;;;;;;26.60;19.50;;;;;;;;;;5058105;28;20241;-73
2021/12/23 15:21:19;;;;;;;34.47;21.40;;;;;;;;;;5056124;28;20271;-75
2021/12/23 15:23:47;;;;;;;30.60;21.47;;;;;;;;;;5034720;28;20223;-74
2021/12/23 15:26:22;;;;;;;27.63;20.23;;;;;;;;;;5032675;28;20342;-73
2021/12/23 15:29:10;;;;;;;25.57;17.97;;;;;;;;;;5074606;28;20248;-75
2021/12/23 15:31:35;;;;;;;28.37;19.30;;;;;;;;;;5046135;28;20218;-74
2021/12/23 15:34:06;;;;;;;29.83;20.13;;;;;;;;;;5069082;28;20280;-74
2021/12/23 15:36:32;;;;;;;33.77;21.33;;;;;;;;;;5061953;28;20700;-75
2021/12/23 15:39:00;;;;;;;28.60;20.47;;;;;;;;;;5065573;28;20215;-74
2021/12/23 15:41:29;;;;;;;30.87;21.17;;;;;;;;;;5082743;28;20267;-72
2021/12/23 15:43:55;;;;;;;33.20;23.57;;;;;;;;;;5035052;28;20431;-72
2021/12/23 15:46:25;;;;;;;31.27;22.17;;;;;;;;;;5050767;28;20872;-74
2021/12/23 15:48:51;;;;;;;31.03;20.70;;;;;;;;;;5059869;28;20207;-74